sensor_id;sensor_type;location;lat;lon;timestamp;temperature;humidity
55771;DHT22;41687;-33.234;-60.334;2023-04-19T00:02:22;13.80;62.40
55771;DHT22;41687;-33.234;-60.334;2023-04-19T00:04:51;13.80;62.00
55771;DHT22;41687;-33.234;-60.334;2023-04-19T00:07:19;13.80;62.40
55771;DHT22;41687;-33.234;-60.334;2023-04-19T00:09:47;13.80;62.10
55771;DHT22;41687;-33.234;-60.334;2023-04-19T00:12:14;13.80;62.20
55771;DHT22;41687;-33.234;-60.334;2023-04-19T00:14:42;13.70;61.90
55771;DHT22;41687;-33.234;-60.334;2023-04-19T00:17:10;13.60;62.00
55771;DHT22;41687;-33.234;-60.334;2023-04-19T00:19:38;13.60;62.00
55771;DHT22;41687;-33.234;-60.334;2023-04-19T00:22:05;13.60;62.50
55771;DHT22;41687;-33.234;-60.334;2023-04-19T00:24:33;13.50;62.50
55771;DHT22;41687;-33.234;-60.334;2023-04-19T00:27:02;13.50;62.90
55771;DHT22;41687;-33.234;-60.334;2023-04-19T00:29:29;13.50;62.70
55771;DHT22;41687;-33.234;-60.334;2023-04-19T00:31:59;13.50;62.70
55771;DHT22;41687;-33.234;-60.334;2023-04-19T00:34:26;13.50;63.10
55771;DHT22;41687;-33.234;-60.334;2023-04-19T00:36:56;13.60;63.60
55771;DHT22;41687;-33.234;-60.334;2023-04-19T00:39:23;13.60;63.70
55771;DHT22;41687;-33.234;-60.334;2023-04-19T00:41:52;13.60;63.70
55771;DHT22;41687;-33.234;-60.334;2023-04-19T00:44:19;13.60;63.60
55771;DHT22;41687;-33.234;-60.334;2023-04-19T00:46:48;13.60;62.70
55771;DHT22;41687;-33.234;-60.334;2023-04-19T00:49:17;13.60;63.60
55771;DHT22;41687;-33.234;-60.334;2023-04-19T00:51:49;13.60;63.70
55771;DHT22;41687;-33.234;-60.334;2023-04-19T00:54:18;13.60;63.60
55771;DHT22;41687;-33.234;-60.334;2023-04-19T00:56:52;13.50;63.10
55771;DHT22;41687;-33.234;-60.334;2023-04-19T00:59:20;13.50;63.60
55771;DHT22;41687;-33.234;-60.334;2023-04-19T01:01:48;13.40;63.90
55771;DHT22;41687;-33.234;-60.334;2023-04-19T01:04:17;13.40;63.70
55771;DHT22;41687;-33.234;-60.334;2023-04-19T01:06:46;13.30;63.80
55771;DHT22;41687;-33.234;-60.334;2023-04-19T01:09:14;13.40;64.20
55771;DHT22;41687;-33.234;-60.334;2023-04-19T01:11:41;13.30;63.80
55771;DHT22;41687;-33.234;-60.334;2023-04-19T01:14:09;13.20;63.90
55771;DHT22;41687;-33.234;-60.334;2023-04-19T01:16:37;13.20;64.30
55771;DHT22;41687;-33.234;-60.334;2023-04-19T01:19:05;13.20;63.90
55771;DHT22;41687;-33.234;-60.334;2023-04-19T01:21:36;13.20;64.10
55771;DHT22;41687;-33.234;-60.334;2023-04-19T01:24:05;13.20;64.00
55771;DHT22;41687;-33.234;-60.334;2023-04-19T01:26:33;13.10;64.50
55771;DHT22;41687;-33.234;-60.334;2023-04-19T01:29:02;13.10;63.80
55771;DHT22;41687;-33.234;-60.334;2023-04-19T01:31:30;13.10;64.00
55771;DHT22;41687;-33.234;-60.334;2023-04-19T01:33:58;13.10;64.40
55771;DHT22;41687;-33.234;-60.334;2023-04-19T01:36:26;13.00;65.30
55771;DHT22;41687;-33.234;-60.334;2023-04-19T01:38:54;13.00;64.80
55771;DHT22;41687;-33.234;-60.334;2023-04-19T01:41:21;13.00;64.60
55771;DHT22;41687;-33.234;-60.334;2023-04-19T01:43:53;13.00;64.50
55771;DHT22;41687;-33.234;-60.334;2023-04-19T01:46:20;13.00;64.50
55771;DHT22;41687;-33.234;-60.334;2023-04-19T01:48:48;13.00;64.80
55771;DHT22;41687;-33.234;-60.334;2023-04-19T01:51:15;12.90;64.50
55771;DHT22;41687;-33.234;-60.334;2023-04-19T01:53:43;12.90;64.20
55771;DHT22;41687;-33.234;-60.334;2023-04-19T01:56:11;12.90;64.30
55771;DHT22;41687;-33.234;-60.334;2023-04-19T01:58:39;12.90;64.60
55771;DHT22;41687;-33.234;-60.334;2023-04-19T02:01:06;12.90;64.60
55771;DHT22;41687;-33.234;-60.334;2023-04-19T02:03:39;12.80;64.80
55771;DHT22;41687;-33.234;-60.334;2023-04-19T02:06:09;12.90;65.10
55771;DHT22;41687;-33.234;-60.334;2023-04-19T02:08:39;12.90;64.60
55771;DHT22;41687;-33.234;-60.334;2023-04-19T02:11:10;12.80;64.50
55771;DHT22;41687;-33.234;-60.334;2023-04-19T02:13:41;12.90;64.80
55771;DHT22;41687;-33.234;-60.334;2023-04-19T02:16:09;12.80;64.90
55771;DHT22;41687;-33.234;-60.334;2023-04-19T02:18:37;12.80;65.00
55771;DHT22;41687;-33.234;-60.334;2023-04-19T02:21:07;12.80;65.10
55771;DHT22;41687;-33.234;-60.334;2023-04-19T02:23:35;12.70;64.80
55771;DHT22;41687;-33.234;-60.334;2023-04-19T02:26:03;12.80;65.00
55771;DHT22;41687;-33.234;-60.334;2023-04-19T02:28:32;12.80;64.90
55771;DHT22;41687;-33.234;-60.334;2023-04-19T02:31:04;12.70;64.60
55771;DHT22;41687;-33.234;-60.334;2023-04-19T02:33:34;12.70;65.10
55771;DHT22;41687;-33.234;-60.334;2023-04-19T02:36:03;12.80;64.30
55771;DHT22;41687;-33.234;-60.334;2023-04-19T02:38:30;12.80;64.60
55771;DHT22;41687;-33.234;-60.334;2023-04-19T02:40:58;12.80;63.90
55771;DHT22;41687;-33.234;-60.334;2023-04-19T02:43:27;12.80;63.60
55771;DHT22;41687;-33.234;-60.334;2023-04-19T02:45:55;12.80;64.30
55771;DHT22;41687;-33.234;-60.334;2023-04-19T02:48:22;12.80;64.70
55771;DHT22;41687;-33.234;-60.334;2023-04-19T02:50:50;12.80;64.70
55771;DHT22;41687;-33.234;-60.334;2023-04-19T02:53:18;12.70;64.30
55771;DHT22;41687;-33.234;-60.334;2023-04-19T02:55:47;12.60;64.30
55771;DHT22;41687;-33.234;-60.334;2023-04-19T02:58:18;12.60;64.50
55771;DHT22;41687;-33.234;-60.334;2023-04-19T03:01:00;12.50;64.70
55771;DHT22;41687;-33.234;-60.334;2023-04-19T03:03:28;12.50;65.00
55771;DHT22;41687;-33.234;-60.334;2023-04-19T03:05:56;12.40;64.80
55771;DHT22;41687;-33.234;-60.334;2023-04-19T03:08:24;12.40;65.30
55771;DHT22;41687;-33.234;-60.334;2023-04-19T03:10:51;12.50;65.00
55771;DHT22;41687;-33.234;-60.334;2023-04-19T03:13:19;12.40;65.00
55771;DHT22;41687;-33.234;-60.334;2023-04-19T03:15:47;12.40;65.10
55771;DHT22;41687;-33.234;-60.334;2023-04-19T03:18:15;12.40;64.60
55771;DHT22;41687;-33.234;-60.334;2023-04-19T03:20:43;12.40;64.30
55771;DHT22;41687;-33.234;-60.334;2023-04-19T03:23:12;12.40;65.20
55771;DHT22;41687;-33.234;-60.334;2023-04-19T03:25:40;12.40;65.00
55771;DHT22;41687;-33.234;-60.334;2023-04-19T03:28:31;12.40;64.60
55771;DHT22;41687;-33.234;-60.334;2023-04-19T03:31:28;12.40;64.80
55771;DHT22;41687;-33.234;-60.334;2023-04-19T03:33:56;12.30;64.40
55771;DHT22;41687;-33.234;-60.334;2023-04-19T03:36:28;12.30;64.70
55771;DHT22;41687;-33.234;-60.334;2023-04-19T03:38:57;12.30;64.70
55771;DHT22;41687;-33.234;-60.334;2023-04-19T03:41:26;12.30;64.90
55771;DHT22;41687;-33.234;-60.334;2023-04-19T03:44:03;12.30;64.70
55771;DHT22;41687;-33.234;-60.334;2023-04-19T03:46:31;12.30;64.60
55771;DHT22;41687;-33.234;-60.334;2023-04-19T03:48:59;12.30;64.90
55771;DHT22;41687;-33.234;-60.334;2023-04-19T03:51:28;12.30;64.80
55771;DHT22;41687;-33.234;-60.334;2023-04-19T03:53:55;12.30;64.80
55771;DHT22;41687;-33.234;-60.334;2023-04-19T03:56:24;12.30;65.10
55771;DHT22;41687;-33.234;-60.334;2023-04-19T03:58:52;12.20;65.00
55771;DHT22;41687;-33.234;-60.334;2023-04-19T04:01:21;12.20;65.20
55771;DHT22;41687;-33.234;-60.334;2023-04-19T04:03:51;12.20;65.50
55771;DHT22;41687;-33.234;-60.334;2023-04-19T04:06:19;12.20;65.20
55771;DHT22;41687;-33.234;-60.334;2023-04-19T04:08:48;12.20;65.30
55771;DHT22;41687;-33.234;-60.334;2023-04-19T04:11:15;12.20;65.50
55771;DHT22;41687;-33.234;-60.334;2023-04-19T04:13:46;12.20;65.60
55771;DHT22;41687;-33.234;-60.334;2023-04-19T04:16:18;12.20;65.20
55771;DHT22;41687;-33.234;-60.334;2023-04-19T04:18:48;12.20;66.00
55771;DHT22;41687;-33.234;-60.334;2023-04-19T04:21:15;12.20;64.90
55771;DHT22;41687;-33.234;-60.334;2023-04-19T04:23:46;12.20;65.00
55771;DHT22;41687;-33.234;-60.334;2023-04-19T04:26:23;12.10;65.30
55771;DHT22;41687;-33.234;-60.334;2023-04-19T04:29:07;12.20;65.70
55771;DHT22;41687;-33.234;-60.334;2023-04-19T04:31:40;12.10;65.50
55771;DHT22;41687;-33.234;-60.334;2023-04-19T04:34:07;12.10;66.10
55771;DHT22;41687;-33.234;-60.334;2023-04-19T04:36:40;12.20;66.00
55771;DHT22;41687;-33.234;-60.334;2023-04-19T04:39:08;12.10;65.50
55771;DHT22;41687;-33.234;-60.334;2023-04-19T04:41:37;12.10;65.60
55771;DHT22;41687;-33.234;-60.334;2023-04-19T04:44:08;12.10;65.70
55771;DHT22;41687;-33.234;-60.334;2023-04-19T04:46:37;12.10;65.90
55771;DHT22;41687;-33.234;-60.334;2023-04-19T04:49:06;12.20;65.80
55771;DHT22;41687;-33.234;-60.334;2023-04-19T04:51:34;12.20;65.60
55771;DHT22;41687;-33.234;-60.334;2023-04-19T04:54:04;12.20;65.40
55771;DHT22;41687;-33.234;-60.334;2023-04-19T04:56:32;12.20;65.90
55771;DHT22;41687;-33.234;-60.334;2023-04-19T04:59:00;12.20;65.80
55771;DHT22;41687;-33.234;-60.334;2023-04-19T05:01:33;12.30;65.60
55771;DHT22;41687;-33.234;-60.334;2023-04-19T05:04:02;12.30;65.60
55771;DHT22;41687;-33.234;-60.334;2023-04-19T05:06:29;12.30;65.80
55771;DHT22;41687;-33.234;-60.334;2023-04-19T05:08:58;12.20;66.00
55771;DHT22;41687;-33.234;-60.334;2023-04-19T05:11:33;12.20;66.50
55771;DHT22;41687;-33.234;-60.334;2023-04-19T05:14:02;12.20;66.50
55771;DHT22;41687;-33.234;-60.334;2023-04-19T05:16:32;12.10;66.50
55771;DHT22;41687;-33.234;-60.334;2023-04-19T05:19:00;12.10;67.00
55771;DHT22;41687;-33.234;-60.334;2023-04-19T05:21:33;12.10;66.90
55771;DHT22;41687;-33.234;-60.334;2023-04-19T05:24:04;12.00;66.60
55771;DHT22;41687;-33.234;-60.334;2023-04-19T05:26:33;12.00;66.90
55771;DHT22;41687;-33.234;-60.334;2023-04-19T05:29:02;12.00;67.20
55771;DHT22;41687;-33.234;-60.334;2023-04-19T05:31:45;12.00;67.30
55771;DHT22;41687;-33.234;-60.334;2023-04-19T05:34:36;11.90;67.10
55771;DHT22;41687;-33.234;-60.334;2023-04-19T05:37:04;11.80;67.30
55771;DHT22;41687;-33.234;-60.334;2023-04-19T05:39:32;11.80;67.50
55771;DHT22;41687;-33.234;-60.334;2023-04-19T05:42:00;11.80;67.60
55771;DHT22;41687;-33.234;-60.334;2023-04-19T05:44:28;11.70;67.60
55771;DHT22;41687;-33.234;-60.334;2023-04-19T05:46:56;11.70;67.80
55771;DHT22;41687;-33.234;-60.334;2023-04-19T05:49:48;11.70;68.50
55771;DHT22;41687;-33.234;-60.334;2023-04-19T05:52:24;11.70;68.30
55771;DHT22;41687;-33.234;-60.334;2023-04-19T05:54:55;11.70;68.60
55771;DHT22;41687;-33.234;-60.334;2023-04-19T05:57:23;11.60;68.60
55771;DHT22;41687;-33.234;-60.334;2023-04-19T05:59:51;11.60;68.50
55771;DHT22;41687;-33.234;-60.334;2023-04-19T06:02:23;11.60;68.40
55771;DHT22;41687;-33.234;-60.334;2023-04-19T06:04:52;11.50;69.10
55771;DHT22;41687;-33.234;-60.334;2023-04-19T06:07:19;11.60;68.50
55771;DHT22;41687;-33.234;-60.334;2023-04-19T06:09:47;11.60;69.00
55771;DHT22;41687;-33.234;-60.334;2023-04-19T06:12:14;11.60;68.50
55771;DHT22;41687;-33.234;-60.334;2023-04-19T06:14:44;11.70;69.40
55771;DHT22;41687;-33.234;-60.334;2023-04-19T06:17:12;11.70;68.90
55771;DHT22;41687;-33.234;-60.334;2023-04-19T06:19:42;11.70;68.90
55771;DHT22;41687;-33.234;-60.334;2023-04-19T06:22:10;11.70;68.80
55771;DHT22;41687;-33.234;-60.334;2023-04-19T06:24:38;11.70;68.20
55771;DHT22;41687;-33.234;-60.334;2023-04-19T06:27:05;11.80;68.40
55771;DHT22;41687;-33.234;-60.334;2023-04-19T06:29:33;11.80;68.00
55771;DHT22;41687;-33.234;-60.334;2023-04-19T06:32:01;11.80;67.90
55771;DHT22;41687;-33.234;-60.334;2023-04-19T06:34:29;11.90;68.00
55771;DHT22;41687;-33.234;-60.334;2023-04-19T06:36:56;11.90;68.60
55771;DHT22;41687;-33.234;-60.334;2023-04-19T06:39:24;11.90;68.10
55771;DHT22;41687;-33.234;-60.334;2023-04-19T06:41:52;12.00;68.20
55771;DHT22;41687;-33.234;-60.334;2023-04-19T06:44:22;12.00;68.10
55771;DHT22;41687;-33.234;-60.334;2023-04-19T06:46:49;12.00;68.50
55771;DHT22;41687;-33.234;-60.334;2023-04-19T06:49:17;12.00;68.50
55771;DHT22;41687;-33.234;-60.334;2023-04-19T06:51:44;11.90;68.50
55771;DHT22;41687;-33.234;-60.334;2023-04-19T06:54:13;12.00;68.40
55771;DHT22;41687;-33.234;-60.334;2023-04-19T06:56:42;12.00;68.80
55771;DHT22;41687;-33.234;-60.334;2023-04-19T06:59:15;12.00;68.50
55771;DHT22;41687;-33.234;-60.334;2023-04-19T07:01:44;12.00;68.30
55771;DHT22;41687;-33.234;-60.334;2023-04-19T07:04:12;12.00;68.40
55771;DHT22;41687;-33.234;-60.334;2023-04-19T07:06:40;12.00;68.70
55771;DHT22;41687;-33.234;-60.334;2023-04-19T07:09:07;12.00;68.90
55771;DHT22;41687;-33.234;-60.334;2023-04-19T07:11:36;12.00;69.10
55771;DHT22;41687;-33.234;-60.334;2023-04-19T07:14:03;12.00;69.00
55771;DHT22;41687;-33.234;-60.334;2023-04-19T07:16:31;12.00;68.90
55771;DHT22;41687;-33.234;-60.334;2023-04-19T07:18:58;12.00;68.80
55771;DHT22;41687;-33.234;-60.334;2023-04-19T07:21:26;12.00;69.00
55771;DHT22;41687;-33.234;-60.334;2023-04-19T07:23:59;12.00;69.00
55771;DHT22;41687;-33.234;-60.334;2023-04-19T07:26:26;12.00;68.90
55771;DHT22;41687;-33.234;-60.334;2023-04-19T07:28:54;11.90;69.10
55771;DHT22;41687;-33.234;-60.334;2023-04-19T07:31:23;11.90;69.60
55771;DHT22;41687;-33.234;-60.334;2023-04-19T07:33:52;12.00;69.60
55771;DHT22;41687;-33.234;-60.334;2023-04-19T07:36:20;12.00;69.50
55771;DHT22;41687;-33.234;-60.334;2023-04-19T07:38:48;12.00;69.50
55771;DHT22;41687;-33.234;-60.334;2023-04-19T07:41:15;11.90;69.60
55771;DHT22;41687;-33.234;-60.334;2023-04-19T07:43:44;11.90;69.20
55771;DHT22;41687;-33.234;-60.334;2023-04-19T07:46:12;11.90;69.40
55771;DHT22;41687;-33.234;-60.334;2023-04-19T07:48:40;11.90;70.10
55771;DHT22;41687;-33.234;-60.334;2023-04-19T07:51:09;11.90;69.90
55771;DHT22;41687;-33.234;-60.334;2023-04-19T07:53:38;11.90;69.30
55771;DHT22;41687;-33.234;-60.334;2023-04-19T07:56:08;11.90;69.40
55771;DHT22;41687;-33.234;-60.334;2023-04-19T07:58:37;11.80;70.10
55771;DHT22;41687;-33.234;-60.334;2023-04-19T08:01:04;11.80;70.70
55771;DHT22;41687;-33.234;-60.334;2023-04-19T08:03:36;11.80;70.50
55771;DHT22;41687;-33.234;-60.334;2023-04-19T08:06:05;11.70;70.70
55771;DHT22;41687;-33.234;-60.334;2023-04-19T08:08:35;11.80;70.80
55771;DHT22;41687;-33.234;-60.334;2023-04-19T08:11:04;11.70;70.90
55771;DHT22;41687;-33.234;-60.334;2023-04-19T08:13:32;11.70;71.10
55771;DHT22;41687;-33.234;-60.334;2023-04-19T08:16:00;11.70;70.80
55771;DHT22;41687;-33.234;-60.334;2023-04-19T08:18:27;11.70;71.40
55771;DHT22;41687;-33.234;-60.334;2023-04-19T08:20:55;11.70;70.50
55771;DHT22;41687;-33.234;-60.334;2023-04-19T08:23:23;11.70;70.40
55771;DHT22;41687;-33.234;-60.334;2023-04-19T08:25:50;11.70;71.10
55771;DHT22;41687;-33.234;-60.334;2023-04-19T08:28:18;11.70;71.10
55771;DHT22;41687;-33.234;-60.334;2023-04-19T08:30:46;11.70;71.30
55771;DHT22;41687;-33.234;-60.334;2023-04-19T08:33:14;11.60;71.20
55771;DHT22;41687;-33.234;-60.334;2023-04-19T08:35:41;11.60;71.40
55771;DHT22;41687;-33.234;-60.334;2023-04-19T08:38:11;11.60;70.90
55771;DHT22;41687;-33.234;-60.334;2023-04-19T08:40:46;11.60;71.20
55771;DHT22;41687;-33.234;-60.334;2023-04-19T08:43:17;11.60;71.70
55771;DHT22;41687;-33.234;-60.334;2023-04-19T08:45:49;11.60;71.60
55771;DHT22;41687;-33.234;-60.334;2023-04-19T08:48:17;11.60;72.10
55771;DHT22;41687;-33.234;-60.334;2023-04-19T08:50:45;11.60;72.00
55771;DHT22;41687;-33.234;-60.334;2023-04-19T08:53:15;11.50;71.80
55771;DHT22;41687;-33.234;-60.334;2023-04-19T08:55:43;11.50;72.00
55771;DHT22;41687;-33.234;-60.334;2023-04-19T08:58:11;11.50;71.90
55771;DHT22;41687;-33.234;-60.334;2023-04-19T09:00:38;11.50;72.10
55771;DHT22;41687;-33.234;-60.334;2023-04-19T09:03:07;11.50;72.10
55771;DHT22;41687;-33.234;-60.334;2023-04-19T09:05:35;11.40;72.10
55771;DHT22;41687;-33.234;-60.334;2023-04-19T09:08:31;11.50;72.20
55771;DHT22;41687;-33.234;-60.334;2023-04-19T09:11:00;11.40;72.80
55771;DHT22;41687;-33.234;-60.334;2023-04-19T09:13:28;11.40;71.90
55771;DHT22;41687;-33.234;-60.334;2023-04-19T09:15:56;11.40;72.70
55771;DHT22;41687;-33.234;-60.334;2023-04-19T09:18:27;11.40;72.60
55771;DHT22;41687;-33.234;-60.334;2023-04-19T09:20:54;11.40;72.20
55771;DHT22;41687;-33.234;-60.334;2023-04-19T09:23:26;11.40;72.20
55771;DHT22;41687;-33.234;-60.334;2023-04-19T09:26:01;11.40;72.50
55771;DHT22;41687;-33.234;-60.334;2023-04-19T09:28:30;11.40;72.30
55771;DHT22;41687;-33.234;-60.334;2023-04-19T09:31:10;11.40;72.60
55771;DHT22;41687;-33.234;-60.334;2023-04-19T09:33:41;11.40;72.80
55771;DHT22;41687;-33.234;-60.334;2023-04-19T09:36:11;11.30;72.70
55771;DHT22;41687;-33.234;-60.334;2023-04-19T09:38:53;11.30;72.90
55771;DHT22;41687;-33.234;-60.334;2023-04-19T09:41:21;11.30;72.50
55771;DHT22;41687;-33.234;-60.334;2023-04-19T09:43:49;11.30;72.50
55771;DHT22;41687;-33.234;-60.334;2023-04-19T09:46:37;11.30;72.90
55771;DHT22;41687;-33.234;-60.334;2023-04-19T09:49:19;11.30;74.60
55771;DHT22;41687;-33.234;-60.334;2023-04-19T09:51:55;11.20;73.30
55771;DHT22;41687;-33.234;-60.334;2023-04-19T09:54:25;11.20;73.50
55771;DHT22;41687;-33.234;-60.334;2023-04-19T09:56:58;11.20;73.50
55771;DHT22;41687;-33.234;-60.334;2023-04-19T09:59:27;11.10;73.60
55771;DHT22;41687;-33.234;-60.334;2023-04-19T10:01:55;11.10;73.20
55771;DHT22;41687;-33.234;-60.334;2023-04-19T10:04:23;11.10;73.50
55771;DHT22;41687;-33.234;-60.334;2023-04-19T10:06:52;11.10;73.40
55771;DHT22;41687;-33.234;-60.334;2023-04-19T10:09:21;11.10;73.60
55771;DHT22;41687;-33.234;-60.334;2023-04-19T10:11:51;11.10;73.60
55771;DHT22;41687;-33.234;-60.334;2023-04-19T10:14:23;11.10;73.40
55771;DHT22;41687;-33.234;-60.334;2023-04-19T10:16:51;11.10;73.90
55771;DHT22;41687;-33.234;-60.334;2023-04-19T10:19:20;11.10;73.80
55771;DHT22;41687;-33.234;-60.334;2023-04-19T10:21:49;11.10;73.40
55771;DHT22;41687;-33.234;-60.334;2023-04-19T10:24:17;11.10;73.50
55771;DHT22;41687;-33.234;-60.334;2023-04-19T10:29:59;11.10;74.20
55771;DHT22;41687;-33.234;-60.334;2023-04-19T10:32:39;11.10;74.30
55771;DHT22;41687;-33.234;-60.334;2023-04-19T10:37:39;11.10;73.50
55771;DHT22;41687;-33.234;-60.334;2023-04-19T10:40:09;11.20;73.50
55771;DHT22;41687;-33.234;-60.334;2023-04-19T10:45:39;11.20;74.30
55771;DHT22;41687;-33.234;-60.334;2023-04-19T10:51:14;11.20;74.30
55771;DHT22;41687;-33.234;-60.334;2023-04-19T10:53:59;11.30;73.40
55771;DHT22;41687;-33.234;-60.334;2023-04-19T11:01:44;11.60;72.70
55771;DHT22;41687;-33.234;-60.334;2023-04-19T11:04:14;11.70;72.80
55771;DHT22;41687;-33.234;-60.334;2023-04-19T11:09:28;11.80;72.80
55771;DHT22;41687;-33.234;-60.334;2023-04-19T11:12:20;11.80;72.70
55771;DHT22;41687;-33.234;-60.334;2023-04-19T11:14:52;11.80;73.30
55771;DHT22;41687;-33.234;-60.334;2023-04-19T11:17:22;11.70;73.00
55771;DHT22;41687;-33.234;-60.334;2023-04-19T11:24:54;12.50;71.80
55771;DHT22;41687;-33.234;-60.334;2023-04-19T11:27:21;13.40;70.80
55771;DHT22;41687;-33.234;-60.334;2023-04-19T11:29:49;15.70;66.50
55771;DHT22;41687;-33.234;-60.334;2023-04-19T11:32:20;17.60;62.40
55771;DHT22;41687;-33.234;-60.334;2023-04-19T11:34:48;19.00;58.40
55771;DHT22;41687;-33.234;-60.334;2023-04-19T11:37:16;20.30;57.00
55771;DHT22;41687;-33.234;-60.334;2023-04-19T11:39:47;21.40;55.10
55771;DHT22;41687;-33.234;-60.334;2023-04-19T11:42:18;22.00;52.80
55771;DHT22;41687;-33.234;-60.334;2023-04-19T11:44:50;22.40;51.40
55771;DHT22;41687;-33.234;-60.334;2023-04-19T11:47:18;22.60;50.90
55771;DHT22;41687;-33.234;-60.334;2023-04-19T11:49:46;22.50;51.80
55771;DHT22;41687;-33.234;-60.334;2023-04-19T11:52:23;21.60;52.80
55771;DHT22;41687;-33.234;-60.334;2023-04-19T11:54:52;21.00;52.30
55771;DHT22;41687;-33.234;-60.334;2023-04-19T11:57:30;20.20;54.80
55771;DHT22;41687;-33.234;-60.334;2023-04-19T12:00:08;19.20;53.90
55771;DHT22;41687;-33.234;-60.334;2023-04-19T12:02:42;18.30;55.50
55771;DHT22;41687;-33.234;-60.334;2023-04-19T12:05:12;18.20;58.10
55771;DHT22;41687;-33.234;-60.334;2023-04-19T12:10:26;18.60;56.30
55771;DHT22;41687;-33.234;-60.334;2023-04-19T12:12:54;19.30;57.30
55771;DHT22;41687;-33.234;-60.334;2023-04-19T12:15:22;19.90;56.10
55771;DHT22;41687;-33.234;-60.334;2023-04-19T12:18:00;20.10;56.00
55771;DHT22;41687;-33.234;-60.334;2023-04-19T12:20:33;20.40;53.20
55771;DHT22;41687;-33.234;-60.334;2023-04-19T12:23:01;20.40;53.50
55771;DHT22;41687;-33.234;-60.334;2023-04-19T12:25:31;20.60;54.80
55771;DHT22;41687;-33.234;-60.334;2023-04-19T12:28:01;20.80;54.70
55771;DHT22;41687;-33.234;-60.334;2023-04-19T12:30:29;21.00;54.30
55771;DHT22;41687;-33.234;-60.334;2023-04-19T12:32:58;21.00;54.90
55771;DHT22;41687;-33.234;-60.334;2023-04-19T12:35:27;21.10;54.40
55771;DHT22;41687;-33.234;-60.334;2023-04-19T12:37:57;21.20;54.10
55771;DHT22;41687;-33.234;-60.334;2023-04-19T12:40:25;21.50;53.70
55771;DHT22;41687;-33.234;-60.334;2023-04-19T12:42:53;21.60;54.10
55771;DHT22;41687;-33.234;-60.334;2023-04-19T12:45:21;21.60;53.30
55771;DHT22;41687;-33.234;-60.334;2023-04-19T12:47:49;21.50;54.10
55771;DHT22;41687;-33.234;-60.334;2023-04-19T12:50:16;21.70;53.70
55771;DHT22;41687;-33.234;-60.334;2023-04-19T12:52:44;21.70;54.20
55771;DHT22;41687;-33.234;-60.334;2023-04-19T12:55:12;21.80;53.70
55771;DHT22;41687;-33.234;-60.334;2023-04-19T12:57:40;22.10;53.50
55771;DHT22;41687;-33.234;-60.334;2023-04-19T13:00:08;22.20;52.80
55771;DHT22;41687;-33.234;-60.334;2023-04-19T13:02:37;22.10;52.90
55771;DHT22;41687;-33.234;-60.334;2023-04-19T13:05:05;22.30;52.80
55771;DHT22;41687;-33.234;-60.334;2023-04-19T13:07:33;22.30;52.80
55771;DHT22;41687;-33.234;-60.334;2023-04-19T13:10:00;22.30;52.70
55771;DHT22;41687;-33.234;-60.334;2023-04-19T13:12:29;22.40;53.00
55771;DHT22;41687;-33.234;-60.334;2023-04-19T13:14:57;22.40;52.30
55771;DHT22;41687;-33.234;-60.334;2023-04-19T13:17:24;22.50;53.60
55771;DHT22;41687;-33.234;-60.334;2023-04-19T13:19:52;22.70;52.70
55771;DHT22;41687;-33.234;-60.334;2023-04-19T13:22:20;22.60;51.40
55771;DHT22;41687;-33.234;-60.334;2023-04-19T13:24:48;22.50;52.80
55771;DHT22;41687;-33.234;-60.334;2023-04-19T13:27:15;22.40;52.50
55771;DHT22;41687;-33.234;-60.334;2023-04-19T13:29:43;22.30;52.20
55771;DHT22;41687;-33.234;-60.334;2023-04-19T13:32:11;22.30;52.50
55771;DHT22;41687;-33.234;-60.334;2023-04-19T13:34:39;22.20;52.10
55771;DHT22;41687;-33.234;-60.334;2023-04-19T13:37:07;22.20;51.70
55771;DHT22;41687;-33.234;-60.334;2023-04-19T13:39:35;22.10;52.80
55771;DHT22;41687;-33.234;-60.334;2023-04-19T13:42:03;22.00;52.30
55771;DHT22;41687;-33.234;-60.334;2023-04-19T13:44:31;22.00;52.90
55771;DHT22;41687;-33.234;-60.334;2023-04-19T13:46:59;21.90;52.30
55771;DHT22;41687;-33.234;-60.334;2023-04-19T13:49:27;21.80;53.10
55771;DHT22;41687;-33.234;-60.334;2023-04-19T13:51:54;21.80;53.50
55771;DHT22;41687;-33.234;-60.334;2023-04-19T13:54:22;21.80;53.10
55771;DHT22;41687;-33.234;-60.334;2023-04-19T13:56:50;21.70;53.20
55771;DHT22;41687;-33.234;-60.334;2023-04-19T13:59:18;21.60;52.60
55771;DHT22;41687;-33.234;-60.334;2023-04-19T14:01:46;21.60;52.70
55771;DHT22;41687;-33.234;-60.334;2023-04-19T14:04:14;21.60;52.80
55771;DHT22;41687;-33.234;-60.334;2023-04-19T14:06:42;21.60;53.30
55771;DHT22;41687;-33.234;-60.334;2023-04-19T14:09:12;21.50;52.60
55771;DHT22;41687;-33.234;-60.334;2023-04-19T14:11:39;21.60;53.00
55771;DHT22;41687;-33.234;-60.334;2023-04-19T14:14:08;21.60;53.10
55771;DHT22;41687;-33.234;-60.334;2023-04-19T14:16:36;21.50;52.30
55771;DHT22;41687;-33.234;-60.334;2023-04-19T14:19:05;21.50;52.20
55771;DHT22;41687;-33.234;-60.334;2023-04-19T14:21:35;21.40;51.50
55771;DHT22;41687;-33.234;-60.334;2023-04-19T14:24:05;21.50;51.10
55771;DHT22;41687;-33.234;-60.334;2023-04-19T14:26:33;21.50;52.20
55771;DHT22;41687;-33.234;-60.334;2023-04-19T14:29:01;21.40;52.10
55771;DHT22;41687;-33.234;-60.334;2023-04-19T14:31:30;21.40;52.30
55771;DHT22;41687;-33.234;-60.334;2023-04-19T14:33:57;21.50;52.80
55771;DHT22;41687;-33.234;-60.334;2023-04-19T14:36:25;21.50;52.10
55771;DHT22;41687;-33.234;-60.334;2023-04-19T14:38:53;21.40;51.30
55771;DHT22;41687;-33.234;-60.334;2023-04-19T14:41:22;21.20;51.60
55771;DHT22;41687;-33.234;-60.334;2023-04-19T14:43:52;21.20;51.00
55771;DHT22;41687;-33.234;-60.334;2023-04-19T14:46:22;21.10;51.60
55771;DHT22;41687;-33.234;-60.334;2023-04-19T14:48:49;21.10;52.00
55771;DHT22;41687;-33.234;-60.334;2023-04-19T14:51:18;21.20;51.20
55771;DHT22;41687;-33.234;-60.334;2023-04-19T14:53:46;21.20;51.50
55771;DHT22;41687;-33.234;-60.334;2023-04-19T14:56:15;21.10;50.80
55771;DHT22;41687;-33.234;-60.334;2023-04-19T14:58:42;21.10;51.10
55771;DHT22;41687;-33.234;-60.334;2023-04-19T15:01:11;21.10;50.80
55771;DHT22;41687;-33.234;-60.334;2023-04-19T15:03:40;21.10;50.00
55771;DHT22;41687;-33.234;-60.334;2023-04-19T15:06:07;20.80;49.00
55771;DHT22;41687;-33.234;-60.334;2023-04-19T15:08:37;20.60;49.60
55771;DHT22;41687;-33.234;-60.334;2023-04-19T15:11:06;20.60;49.80
55771;DHT22;41687;-33.234;-60.334;2023-04-19T15:13:34;20.40;49.30
55771;DHT22;41687;-33.234;-60.334;2023-04-19T15:16:01;20.40;51.00
55771;DHT22;41687;-33.234;-60.334;2023-04-19T15:18:29;20.50;50.90
55771;DHT22;41687;-33.234;-60.334;2023-04-19T15:20:57;20.50;50.30
55771;DHT22;41687;-33.234;-60.334;2023-04-19T15:23:25;20.40;50.40
55771;DHT22;41687;-33.234;-60.334;2023-04-19T15:25:53;20.30;50.60
55771;DHT22;41687;-33.234;-60.334;2023-04-19T15:28:23;20.40;50.70
55771;DHT22;41687;-33.234;-60.334;2023-04-19T15:30:59;20.40;50.10